Time;durP1;ratioP1;P1;durP2;ratioP2;P2;SDS_P1;SDS_P2;PMS_P1;PMS_P2;Temp;Humidity;BMP_temperature;BMP_pressure;BME280_temperature;BME280_humidity;BME280_pressure;Samples;Min_cycle;Max_cycle;Signal;HPM_P1;HPM_P2
2022/08/27 00:02:00;;;;;;;10.17;5.90;;;16.10;99.90;;;;;;5033638;28;19917;-80
2022/08/27 00:04:26;;;;;;;11.50;7.22;;;16.00;99.90;;;;;;5016807;28;20392;-80
2022/08/27 00:06:52;;;;;;;12.77;8.30;;;16.00;99.90;;;;;;5033212;28;20049;-80
2022/08/27 00:09:18;;;;;;;12.38;9.18;;;16.00;99.90;;;;;;5033106;28;20048;-80
2022/08/27 00:11:45;;;;;;;15.38;9.25;;;15.90;99.90;;;;;;5032919;28;20041;-80
2022/08/27 00:14:11;;;;;;;12.82;8.63;;;15.90;99.90;;;;;;5032981;28;20412;-80
2022/08/27 00:16:37;;;;;;;15.05;9.63;;;15.80;99.90;;;;;;5033224;28;20037;-80
2022/08/27 00:19:03;;;;;;;11.23;8.15;;;15.80;99.90;;;;;;5016855;28;20152;-80
2022/08/27 00:21:31;;;;;;;10.88;7.68;;;15.80;99.90;;;;;;5033341;28;20107;-80
2022/08/27 00:23:58;;;;;;;11.50;7.28;;;15.80;99.90;;;;;;5033118;28;20037;-80
2022/08/27 00:26:24;;;;;;;;;;;15.80;99.90;;;;;;5032773;28;20048;-80
2022/08/27 00:28:50;;;;;;;9.10;5.75;;;15.90;99.90;;;;;;5032266;28;19917;-80
2022/08/27 00:31:16;;;;;;;;;;;15.90;99.90;;;;;;5032726;28;20120;-80
2022/08/27 00:33:42;;;;;;;7.63;5.45;;;15.90;99.90;;;;;;5032388;28;20016;-80
2022/08/27 00:36:09;;;;;;;7.57;4.93;;;15.80;99.90;;;;;;5015556;28;20041;-80
2022/08/27 00:38:37;;;;;;;8.75;3.88;;;15.80;99.90;;;;;;5032562;28;20048;-80
2022/08/27 00:41:07;;;;;;;6.88;3.40;;;15.80;99.90;;;;;;5032579;28;20041;-80
2022/08/27 00:43:44;;;;;;;7.43;3.38;;;15.80;99.90;;;;;;5032223;28;20116;-80
2022/08/27 00:46:18;;;;;;;7.55;3.00;;;15.80;99.90;;;;;;5031943;28;20068;-80
2022/08/27 00:48:44;;;;;;;7.45;3.38;;;15.70;99.90;;;;;;5032731;28;20045;-80
2022/08/27 00:51:10;;;;;;;5.22;2.50;;;15.70;99.90;;;;;;5015912;28;20042;-80
2022/08/27 00:53:36;;;;;;;;;;;15.70;99.90;;;;;;5032561;28;20167;-80
2022/08/27 00:56:11;;;;;;;7.25;3.00;;;15.70;99.90;;;;;;5031567;28;20004;-80
2022/08/27 00:58:44;;;;;;;6.40;3.22;;;15.70;99.90;;;;;;5015585;28;20104;-80
2022/08/27 01:01:14;;;;;;;5.15;3.20;;;15.60;99.90;;;;;;5032355;28;20033;-80
2022/08/27 01:03:46;;;;;;;7.35;3.30;;;15.60;99.90;;;;;;5032671;28;20049;-80
2022/08/27 01:06:14;;;;;;;8.20;3.35;;;15.60;99.90;;;;;;5031961;28;20142;-80
2022/08/27 01:08:44;;;;;;;5.78;2.92;;;15.50;99.90;;;;;;5032231;28;20046;-80
2022/08/27 01:11:11;;;;;;;7.18;3.20;;;15.50;99.90;;;;;;5015865;28;20052;-80
2022/08/27 01:13:37;;;;;;;7.45;3.47;;;15.50;99.90;;;;;;5032418;28;20485;-80
2022/08/27 01:16:05;;;;;;;6.05;3.10;;;15.50;99.90;;;;;;4999384;28;20045;-80
2022/08/27 01:18:34;;;;;;;5.32;2.72;;;15.50;99.90;;;;;;5031308;28;20057;-80
2022/08/27 01:21:22;;;;;;;6.53;3.13;;;15.50;99.90;;;;;;5031751;28;20049;-80
2022/08/27 01:23:58;;;;;;;6.05;2.92;;;15.50;99.90;;;;;;5032515;28;20466;-80
2022/08/27 01:26:24;;;;;;;9.27;3.57;;;15.50;99.90;;;;;;5032005;28;20046;-80
2022/08/27 01:28:50;;;;;;;5.53;2.97;;;15.50;99.90;;;;;;5032171;28;20049;-80
2022/08/27 01:31:16;;;;;;;;;;;15.50;99.90;;;;;;5015878;28;20041;-80
2022/08/27 01:33:57;;;;;;;9.65;3.25;;;15.50;99.90;;;;;;5031913;28;20012;-80
2022/08/27 01:36:23;;;;;;;5.65;3.08;;;15.50;99.90;;;;;;5031460;28;20045;-80
2022/08/27 01:38:49;;;;;;;5.50;3.25;;;15.50;99.90;;;;;;5015339;28;20106;-80
2022/08/27 01:41:15;;;;;;;5.32;3.00;;;15.50;99.90;;;;;;5032010;28;20080;-80
2022/08/27 01:43:40;;;;;;;8.00;3.10;;;15.40;99.90;;;;;;5031784;28;20034;-80
2022/08/27 01:46:06;;;;;;;8.73;3.50;;;15.40;99.90;;;;;;5031839;28;20037;-80
2022/08/27 01:48:32;;;;;;;8.98;3.50;;;15.40;99.90;;;;;;5031419;28;20098;-80
2022/08/27 01:50:57;;;;;;;6.30;3.47;;;15.40;99.90;;;;;;5031747;28;20385;-80
2022/08/27 01:53:25;;;;;;;5.72;3.42;;;15.40;99.90;;;;;;5014985;28;20491;-80
2022/08/27 01:55:52;;;;;;;7.07;3.28;;;15.30;99.90;;;;;;5031280;28;20107;-80
2022/08/27 01:58:21;;;;;;;6.90;3.50;;;15.30;99.90;;;;;;4999105;28;20041;-80
2022/08/27 02:00:53;;;;;;;5.95;3.30;;;15.20;99.90;;;;;;5031240;28;20037;-80
2022/08/27 02:03:19;;;;;;;6.63;3.42;;;15.20;99.90;;;;;;5031400;28;20041;-80
2022/08/27 02:05:46;;;;;;;8.23;3.72;;;15.20;99.90;;;;;;5031605;28;20041;-80
2022/08/27 02:08:15;;;;;;;9.63;3.67;;;15.20;99.90;;;;;;5031224;28;20050;-80
2022/08/27 02:10:42;;;;;;;8.32;3.55;;;15.10;99.90;;;;;;5031122;28;20041;-80
2022/08/27 02:13:08;;;;;;;7.82;3.70;;;15.10;99.90;;;;;;5030987;28;20038;-80
2022/08/27 02:15:35;;;;;;;11.82;3.65;;;15.10;99.90;;;;;;5031186;28;20048;-80
2022/08/27 02:18:02;;;;;;;6.45;3.55;;;15.10;99.90;;;;;;5031058;28;20044;-80
2022/08/27 02:20:28;;;;;;;7.00;3.33;;;15.10;99.90;;;;;;5031325;28;20037;-80
2022/08/27 02:22:54;;;;;;;5.80;3.42;;;15.10;99.90;;;;;;5014816;28;20079;-80
2022/08/27 02:25:20;;;;;;;9.77;3.65;;;15.00;99.90;;;;;;5031169;28;20132;-80
2022/08/27 02:27:47;;;;;;;;;;;15.00;99.90;;;;;;4998820;28;20171;-80
2022/08/27 02:30:15;;;;;;;4.90;3.42;;;15.00;99.90;;;;;;5030981;28;20285;-80
2022/08/27 02:32:41;;;;;;;7.50;4.03;;;15.00;99.90;;;;;;5014702;28;20481;-80
2022/08/27 02:35:08;;;;;;;9.18;3.60;;;14.90;99.90;;;;;;5030620;28;20053;-80
2022/08/27 02:37:36;;;;;;;8.50;4.00;;;14.90;99.90;;;;;;5030958;28;20081;-80
2022/08/27 02:40:03;;;;;;;5.95;3.45;;;14.90;99.90;;;;;;5030800;28;20045;-80
2022/08/27 02:42:29;;;;;;;5.90;3.80;;;14.90;99.90;;;;;;5030634;28;20068;-80
2022/08/27 02:44:54;;;;;;;5.00;3.30;;;14.80;99.90;;;;;;5014429;28;20505;-80
2022/08/27 02:47:20;;;;;;;6.47;3.38;;;14.80;99.90;;;;;;5030916;28;20191;-80
2022/08/27 02:49:46;;;;;;;7.75;3.28;;;14.80;99.90;;;;;;5030159;28;20042;-80
2022/08/27 02:52:12;;;;;;;7.00;3.33;;;14.80;99.90;;;;;;5031039;28;20516;-80
2022/08/27 02:54:38;;;;;;;6.07;3.40;;;14.70;99.90;;;;;;5030706;28;20073;-80
2022/08/27 02:57:03;;;;;;;4.07;3.15;;;14.70;99.90;;;;;;5014136;28;20088;-80
2022/08/27 02:59:29;;;;;;;12.60;3.92;;;14.60;99.90;;;;;;5030904;28;20554;-80
2022/08/27 03:01:55;;;;;;;7.68;3.80;;;14.60;99.90;;;;;;5030577;28;20033;-80
2022/08/27 03:04:21;;;;;;;6.82;4.07;;;14.60;99.90;;;;;;5014273;28;20041;-80
2022/08/27 03:06:47;;;;;;;8.25;3.70;;;14.50;99.90;;;;;;5030998;28;20548;-80
2022/08/27 03:09:13;;;;;;;6.07;3.50;;;14.50;99.90;;;;;;5029986;28;20072;-80
2022/08/27 03:11:40;;;;;;;9.32;4.18;;;14.50;99.90;;;;;;5014586;28;20049;-80
2022/08/27 03:14:06;;;;;;;9.05;3.88;;;14.40;99.90;;;;;;5030813;28;20049;-80
2022/08/27 03:16:36;;;;;;;6.10;3.97;;;14.40;99.90;;;;;;5030422;28;20046;-80
2022/08/27 03:19:05;;;;;;;5.00;3.78;;;14.40;99.90;;;;;;5014456;28;20045;-80
2022/08/27 03:21:32;;;;;;;11.88;4.10;;;14.30;99.90;;;;;;5030300;28;20033;-80
2022/08/27 03:24:00;;;;;;;6.38;3.70;;;14.30;99.90;;;;;;5014163;28;20081;-80
2022/08/27 03:26:27;;;;;;;7.32;4.03;;;14.30;99.90;;;;;;5014239;28;20048;-80
2022/08/27 03:28:53;;;;;;;8.57;4.00;;;14.30;99.90;;;;;;5030497;28;20045;-80
2022/08/27 03:31:25;;;;;;;6.85;3.67;;;14.30;99.90;;;;;;5030276;28;20072;-80
2022/08/27 03:34:02;;;;;;;5.35;3.53;;;14.30;99.90;;;;;;5030634;28;20084;-80
2022/08/27 03:36:29;;;;;;;6.20;3.92;;;14.30;99.90;;;;;;5030648;28;20041;-80
2022/08/27 03:38:55;;;;;;;8.40;3.83;;;14.30;99.90;;;;;;5014367;28;20037;-80
2022/08/27 03:41:22;;;;;;;5.80;3.88;;;14.30;99.90;;;;;;5031331;28;20064;-80
2022/08/27 03:43:48;;;;;;;5.07;3.28;;;14.30;99.90;;;;;;5034053;28;20064;-80
2022/08/27 03:46:15;;;;;;;;;;;14.40;99.90;;;;;;5034344;28;20049;-80
2022/08/27 03:48:41;;;;;;;6.80;3.63;;;14.40;99.90;;;;;;5033655;28;20380;-80
2022/08/27 03:51:10;;;;;;;8.00;3.53;;;14.40;99.90;;;;;;5034065;28;20099;-80
2022/08/27 03:53:38;;;;;;;6.00;3.63;;;14.40;99.90;;;;;;5034189;28;20034;-80
2022/08/27 03:56:05;;;;;;;5.40;3.53;;;14.50;99.90;;;;;;5033786;28;20054;-80
2022/08/27 03:58:32;;;;;;;4.63;3.17;;;14.50;99.90;;;;;;5033637;28;20136;-80
2022/08/27 04:00:58;;;;;;;6.72;3.40;;;14.50;99.90;;;;;;5033720;28;20042;-80
2022/08/27 04:03:24;;;;;;;6.32;3.45;;;14.40;99.90;;;;;;5033372;28;20029;-80
2022/08/27 04:05:54;;;;;;;4.47;3.45;;;14.40;99.90;;;;;;5034107;28;20491;-80
2022/08/27 04:08:20;;;;;;;6.65;3.50;;;14.40;99.90;;;;;;5033645;28;20128;-80
2022/08/27 04:10:46;;;;;;;5.68;3.35;;;14.40;99.90;;;;;;5016917;28;20071;-80
2022/08/27 04:13:12;;;;;;;6.35;3.22;;;14.40;99.90;;;;;;5033487;28;20072;-80
2022/08/27 04:15:45;;;;;;;5.63;3.22;;;14.40;99.90;;;;;;5033758;28;20042;-79
2022/08/27 04:18:15;;;;;;;6.20;3.17;;;14.40;99.90;;;;;;5033582;28;20049;-80
2022/08/27 04:20:45;;;;;;;8.50;3.58;;;14.40;99.90;;;;;;5033206;28;20052;-80
2022/08/27 04:23:11;;;;;;;7.38;3.85;;;14.40;99.90;;;;;;5033683;28;20474;-80
2022/08/27 04:25:44;;;;;;;9.02;3.78;;;14.40;99.90;;;;;;5016808;28;20105;-80
2022/08/27 04:28:12;;;;;;;5.78;3.42;;;14.40;99.90;;;;;;5033072;28;20045;-80
2022/08/27 04:30:39;;;;;;;4.95;3.13;;;14.40;99.90;;;;;;5033562;28;20037;-80
2022/08/27 04:33:05;;;;;;;4.88;3.40;;;14.30;99.90;;;;;;5033104;28;20041;-80
2022/08/27 04:35:31;;;;;;;6.00;3.20;;;14.30;99.90;;;;;;5032976;28;20049;-80
2022/08/27 04:37:57;;;;;;;7.53;3.57;;;14.20;99.90;;;;;;5033749;28;20053;-80
2022/08/27 04:41:18;;;;;;;8.00;3.50;;;14.20;99.90;;;;;;5032954;28;20417;-80
2022/08/27 04:43:08;;;;;;;5.32;3.60;;;14.10;99.90;;;;;;5005660;28;20119;-80
2022/08/27 04:45:43;;;;;;;6.67;3.50;;;14.10;99.90;;;;;;5033089;28;20045;-80
2022/08/27 04:48:09;;;;;;;6.07;3.67;;;14.00;99.90;;;;;;5033149;28;20648;-80
2022/08/27 04:50:40;;;;;;;6.68;3.97;;;14.00;99.90;;;;;;5032893;28;20048;-80
2022/08/27 04:53:05;;;;;;;6.55;3.67;;;14.00;99.90;;;;;;5031756;28;20128;-80
2022/08/27 04:55:31;;;;;;;4.33;3.30;;;14.00;99.90;;;;;;5032343;28;20133;-80
2022/08/27 04:57:56;;;;;;;6.57;3.80;;;13.90;99.90;;;;;;5016148;28;20531;-80
2022/08/27 05:00:22;;;;;;;7.13;3.50;;;13.90;99.90;;;;;;5032705;28;20385;-80
2022/08/27 05:02:48;;;;;;;5.80;3.67;;;13.90;99.90;;;;;;5016178;28;20772;-80
2022/08/27 05:05:13;;;;;;;13.63;3.90;;;13.90;99.90;;;;;;5032312;28;20052;-80
2022/08/27 05:07:39;;;;;;;7.30;3.70;;;13.90;99.90;;;;;;5016348;28;20049;-80
2022/08/27 05:10:05;;;;;;;7.67;4.13;;;13.90;99.90;;;;;;5032761;28;20079;-80
2022/08/27 05:12:31;;;;;;;4.15;3.47;;;13.90;99.90;;;;;;5032245;28;20295;-80
2022/08/27 05:14:56;;;;;;;5.60;3.60;;;13.90;99.90;;;;;;5032185;28;20041;-80
2022/08/27 05:17:22;;;;;;;5.17;3.50;;;14.00;99.90;;;;;;5032129;28;20319;-80
2022/08/27 05:19:48;;;;;;;6.53;3.00;;;14.00;99.90;;;;;;5032712;28;20288;-80
2022/08/27 05:22:13;;;;;;;6.10;3.30;;;14.10;99.90;;;;;;5015900;28;20041;-80
2022/08/27 05:24:39;;;;;;;4.63;3.30;;;14.10;99.90;;;;;;5032671;28;20049;-80
2022/08/27 05:27:05;;;;;;;4.33;3.17;;;14.10;99.90;;;;;;5032364;28;20379;-80
2022/08/27 05:29:31;;;;;;;4.72;3.38;;;14.20;99.90;;;;;;5031983;28;20284;-80
2022/08/27 05:31:56;;;;;;;7.05;3.72;;;14.30;99.90;;;;;;5032074;28;20056;-80
2022/08/27 05:34:22;;;;;;;9.77;3.28;;;14.30;99.90;;;;;;5032031;28;20091;-80
2022/08/27 05:36:48;;;;;;;6.57;3.38;;;14.30;99.90;;;;;;5032188;28;20077;-80
2022/08/27 05:39:14;;;;;;;5.45;2.90;;;14.40;99.90;;;;;;5031953;28;20052;-80
2022/08/27 05:41:39;;;;;;;4.20;2.75;;;14.50;99.90;;;;;;5031915;28;20045;-80
2022/08/27 05:44:08;;;;;;;6.90;3.35;;;14.60;99.90;;;;;;4999364;28;20044;-80
2022/08/27 05:46:37;;;;;;;5.15;3.30;;;14.60;99.90;;;;;;5031768;28;20208;-80
2022/08/27 05:49:02;;;;;;;6.63;3.20;;;14.70;99.90;;;;;;5032188;28;20042;-80
2022/08/27 05:51:31;;;;;;;6.35;3.13;;;14.70;99.90;;;;;;5015610;28;20045;-80
2022/08/27 05:54:04;;;;;;;6.07;3.30;;;14.80;99.90;;;;;;5031559;28;20095;-80
2022/08/27 05:56:32;;;;;;;6.18;2.97;;;14.90;99.90;;;;;;5014681;28;20053;-80
2022/08/27 06:01:49;;;;;;;7.82;3.20;;;15.20;99.90;;;;;;5017592;28;20048;-80
2022/08/27 06:04:16;;;;;;;6.13;3.40;;;15.40;99.90;;;;;;5031094;28;20037;-80
2022/08/27 06:06:43;;;;;;;5.22;3.30;;;15.40;99.90;;;;;;5031259;28;20094;-80
2022/08/27 06:09:12;;;;;;;6.55;3.30;;;15.50;99.90;;;;;;5031481;28;20042;-80
2022/08/27 06:11:38;;;;;;;6.82;3.13;;;15.60;99.90;;;;;;5031667;28;20063;-80
2022/08/27 06:14:04;;;;;;;6.75;3.35;;;15.70;99.90;;;;;;5031594;28;20579;-80
2022/08/27 06:16:30;;;;;;;;;;;15.70;99.90;;;;;;4998654;28;20038;-80
2022/08/27 06:18:56;;;;;;;5.85;3.13;;;15.70;99.90;;;;;;5030757;28;19924;-80
2022/08/27 06:21:22;;;;;;;4.28;2.65;;;15.80;99.90;;;;;;5014577;28;20037;-80
2022/08/27 06:23:48;;;;;;;4.18;2.40;;;15.90;99.90;;;;;;5030938;28;20120;-80
2022/08/27 06:26:16;;;;;;;7.22;3.15;;;15.90;99.90;;;;;;5014436;28;20516;-80
2022/08/27 06:28:43;;;;;;;6.90;2.53;;;16.00;99.90;;;;;;5030864;28;20080;-80
2022/08/27 06:31:15;;;;;;;6.32;3.80;;;16.10;99.90;;;;;;5031534;28;20482;-80
2022/08/27 06:33:43;;;;;;;5.68;2.90;;;16.10;99.90;;;;;;5030867;28;20060;-80
2022/08/27 06:36:11;;;;;;;4.75;2.55;;;16.20;99.90;;;;;;5030577;28;20077;-80
2022/08/27 06:38:37;;;;;;;8.90;2.72;;;16.20;99.90;;;;;;5031079;28;20041;-80
2022/08/27 06:41:05;;;;;;;3.78;2.33;;;16.30;99.90;;;;;;5031056;28;20080;-80
2022/08/27 06:43:31;;;;;;;6.18;2.38;;;16.40;99.90;;;;;;5030965;28;20131;-80
2022/08/27 06:45:56;;;;;;;4.80;2.50;;;16.60;99.90;;;;;;5014867;28;20462;-80
2022/08/27 06:48:22;;;;;;;4.75;2.53;;;16.80;99.90;;;;;;5030714;28;20516;-80
2022/08/27 06:50:48;;;;;;;5.50;2.42;;;17.00;99.90;;;;;;5014102;28;20485;-80
2022/08/27 06:53:13;;;;;;;5.90;2.40;;;17.10;99.90;;;;;;5030879;28;20179;-80
2022/08/27 06:55:41;;;;;;;5.75;2.28;;;17.30;99.90;;;;;;5030620;28;20053;-80
2022/08/27 06:58:07;;;;;;;7.45;2.30;;;17.50;99.90;;;;;;5031145;28;20769;-80
2022/08/27 07:00:33;;;;;;;6.18;2.35;;;17.60;99.90;;;;;;5014218;28;20116;-80
2022/08/27 07:03:00;;;;;;;5.38;2.08;;;17.70;99.90;;;;;;5031460;28;20037;-80
2022/08/27 07:05:26;;;;;;;5.32;2.08;;;17.80;99.90;;;;;;5030584;28;20049;-80
2022/08/27 07:07:52;;;;;;;6.95;1.95;;;17.90;99.90;;;;;;5030202;28;20409;-80
2022/08/27 07:10:18;;;;;;;5.13;2.28;;;18.00;99.90;;;;;;5014262;28;20056;-80
2022/08/27 07:12:44;;;;;;;;;;;18.10;99.90;;;;;;5015096;28;20072;-80
2022/08/27 07:15:10;;;;;;;4.35;1.95;;;18.50;99.90;;;;;;5014460;28;19921;-81
2022/08/27 07:17:35;;;;;;;5.32;2.10;;;18.70;99.90;;;;;;5033593;28;20029;-80
2022/08/27 07:20:02;;;;;;;6.70;1.80;;;18.80;99.90;;;;;;5034397;28;20103;-80
2022/08/27 07:22:28;;;;;;;5.57;1.60;;;18.80;99.90;;;;;;5034327;28;20042;-80
2022/08/27 07:24:54;;;;;;;5.05;1.65;;;19.00;99.90;;;;;;5018022;28;20052;-80
2022/08/27 07:27:20;;;;;;;;;;;19.40;99.90;;;;;;5034507;28;20045;-81
2022/08/27 07:29:46;;;;;;;6.60;1.70;;;19.70;99.90;;;;;;5034548;28;19924;-81
2022/08/27 07:32:12;;;;;;;4.88;1.58;;;19.90;99.90;;;;;;5017973;28;20132;-81
2022/08/27 07:34:38;;;;;;;7.03;1.40;;;19.80;99.90;;;;;;5034395;28;20037;-81
2022/08/27 07:37:03;;;;;;;7.35;1.30;;;19.70;99.90;;;;;;5017618;28;20037;-81
2022/08/27 07:39:29;;;;;;;5.20;1.30;;;19.50;99.90;;;;;;5017446;28;20406;-81
2022/08/27 07:44:40;;;;;;;6.63;1.10;;;19.30;99.90;;;;;;5034564;28;20507;-81
2022/08/27 07:47:06;;;;;;;3.20;1.30;;;19.20;99.90;;;;;;5033939;28;20037;-81
2022/08/27 07:49:34;;;;;;;6.15;1.27;;;19.30;99.90;;;;;;5033919;28;20575;-81
2022/08/27 07:52:00;;;;;;;7.03;1.10;;;19.30;99.90;;;;;;5033938;28;20056;-81
2022/08/27 07:54:26;;;;;;;6.50;1.23;;;19.20;99.90;;;;;;5033989;28;20466;-81
2022/08/27 07:56:52;;;;;;;;;;;19.30;99.90;;;;;;5033762;28;20064;-81
2022/08/27 07:59:18;;;;;;;6.10;1.20;;;19.20;99.90;;;;;;5017258;28;20368;-81
2022/08/27 08:01:44;;;;;;;5.00;1.15;;;19.20;99.90;;;;;;5033926;28;20037;-81
2022/08/27 08:04:10;;;;;;;6.88;1.00;;;19.20;99.90;;;;;;5017120;28;20046;-81
2022/08/27 08:06:39;;;;;;;5.97;1.17;;;19.20;99.90;;;;;;5017141;28;20042;-81
2022/08/27 08:09:06;;;;;;;7.93;1.20;;;19.20;99.90;;;;;;5033728;28;20396;-81
2022/08/27 08:11:32;;;;;;;5.95;1.40;;;19.40;99.90;;;;;;5032930;28;20072;-81
2022/08/27 08:13:59;;;;;;;6.75;1.02;;;19.50;99.90;;;;;;5033353;28;20053;-81
2022/08/27 08:16:25;;;;;;;5.50;1.77;;;19.60;99.90;;;;;;5016599;28;20120;-80
2022/08/27 08:18:51;;;;;;;7.93;1.55;;;19.70;99.90;;;;;;5033134;28;20037;-81
2022/08/27 08:21:17;;;;;;;7.40;0.98;;;19.70;99.90;;;;;;5033002;28;20079;-81
2022/08/27 08:23:43;;;;;;;5.25;1.02;;;19.70;99.90;;;;;;5033365;28;20086;-81
2022/08/27 08:26:11;;;;;;;5.72;1.15;;;19.70;99.90;;;;;;5033376;28;20037;-81
2022/08/27 08:28:37;;;;;;;9.20;1.10;;;19.80;99.90;;;;;;5032773;28;20409;-81
2022/08/27 08:31:02;;;;;;;;;;;19.80;99.90;;;;;;5033520;28;20088;-81
2022/08/27 08:33:30;;;;;;;4.40;1.33;;;19.80;99.90;;;;;;5033127;28;19966;-80
2022/08/27 08:36:11;;;;;;;9.38;1.27;;;19.80;99.90;;;;;;5033578;28;20056;-81
2022/08/27 08:38:38;;;;;;;4.68;1.00;;;19.80;99.90;;;;;;5032779;28;20041;-81
2022/08/27 08:41:06;;;;;;;4.18;1.20;;;19.80;99.90;;;;;;5033028;28;20060;-81
2022/08/27 08:43:45;;;;;;;4.20;0.82;;;19.90;99.90;;;;;;5032706;28;20041;-81
2022/08/27 08:46:24;;;;;;;5.20;0.90;;;19.80;99.90;;;;;;5032601;28;20033;-81
2022/08/27 08:48:56;;;;;;;3.90;0.90;;;19.80;99.90;;;;;;5032864;28;20052;-81
2022/08/27 08:51:39;;;;;;;6.35;1.08;;;19.90;99.90;;;;;;5016160;28;20072;-81
2022/08/27 08:54:14;;;;;;;3.70;0.88;;;19.90;99.90;;;;;;5032508;28;20167;-81
2022/08/27 08:57:05;;;;;;;5.40;1.00;;;20.00;99.90;;;;;;5032384;28;20135;-81
2022/08/27 08:59:42;;;;;;;3.72;0.80;;;20.10;99.90;;;;;;5032389;28;20041;-81
2022/08/27 09:02:11;;;;;;;5.30;0.82;;;20.50;99.90;;;;;;5032227;28;20044;-81
2022/08/27 09:04:37;;;;;;;5.03;1.27;;;20.50;99.90;;;;;;5031782;28;20068;-81
2022/08/27 09:07:14;;;;;;;7.25;1.20;;;20.40;99.90;;;;;;5032315;28;20046;-81
2022/08/27 09:09:50;;;;;;;4.95;0.90;;;20.40;99.90;;;;;;5015639;28;20132;-81
2022/08/27 09:12:21;;;;;;;5.77;0.93;;;20.50;99.90;;;;;;5031877;28;20045;-81
2022/08/27 09:15:06;;;;;;;7.05;0.90;;;20.60;99.90;;;;;;5032277;28;20815;-81
2022/08/27 09:17:33;;;;;;;5.43;0.90;;;20.70;99.90;;;;;;5015373;28;20362;-81
2022/08/27 09:19:59;;;;;;;5.68;1.08;;;20.70;99.90;;;;;;5032116;28;20124;-81
2022/08/27 09:22:27;;;;;;;;;;;20.70;99.90;;;;;;5016171;28;20042;-81
2022/08/27 09:25:19;;;;;;;5.70;1.13;;;20.60;99.90;;;;;;5015707;28;19917;-81
2022/08/27 09:27:47;;;;;;;4.68;0.90;;;20.60;99.90;;;;;;5031917;28;20046;-81
2022/08/27 09:30:20;;;;;;;5.32;1.00;;;20.60;99.90;;;;;;5031604;28;20053;-81
2022/08/27 09:32:59;;;;;;;5.45;0.90;;;20.60;99.90;;;;;;5012353;28;20042;-81
2022/08/27 09:35:27;;;;;;;6.97;1.42;;;20.90;99.90;;;;;;5011762;28;20041;-81
2022/08/27 09:37:54;;;;;;;7.38;1.23;;;21.10;99.90;;;;;;4995920;28;20034;-81
2022/08/27 09:40:38;;;;;;;6.38;1.00;;;21.10;99.90;;;;;;5011301;28;20104;-81
2022/08/27 09:43:23;;;;;;;7.15;1.33;;;21.30;99.90;;;;;;4995539;28;20131;-81
2022/08/27 09:45:56;;;;;;;5.55;1.00;;;21.70;99.90;;;;;;5011939;28;20077;-82
2022/08/27 09:48:33;;;;;;;4.88;0.90;;;22.20;99.90;;;;;;5024800;28;20045;-82
2022/08/27 09:51:15;;;;;;;4.80;1.05;;;22.40;99.90;;;;;;5015489;28;20124;-81
2022/08/27 09:53:49;;;;;;;6.00;1.15;;;22.30;99.90;;;;;;5031329;28;20041;-81
2022/08/27 09:56:32;;;;;;;5.68;0.82;;;21.90;99.90;;;;;;5030916;28;20049;-82
2022/08/27 09:59:03;;;;;;;5.70;0.80;;;21.70;99.90;;;;;;5031823;28;20524;-81
2022/08/27 10:01:32;;;;;;;4.38;0.82;;;21.50;99.90;;;;;;5031518;28;20481;-81
2022/08/27 10:04:16;;;;;;;6.00;0.80;;;21.40;99.90;;;;;;5031455;28;20041;-81
2022/08/27 10:06:48;;;;;;;8.02;1.08;;;21.30;99.90;;;;;;5014869;28;20095;-81
2022/08/27 10:09:37;;;;;;;2.92;0.95;;;21.30;99.90;;;;;;5031130;28;20116;-81
2022/08/27 10:12:10;;;;;;;7.07;0.70;;;21.30;99.90;;;;;;5031471;28;20083;-81
2022/08/27 10:14:56;;;;;;;5.88;0.90;;;21.20;99.90;;;;;;5030869;28;20041;-81
2022/08/27 10:17:42;;;;;;;6.28;0.80;;;21.10;99.90;;;;;;5031109;28;20082;-81
2022/08/27 10:20:21;;;;;;;3.78;0.90;;;21.10;99.90;;;;;;5031453;28;20076;-81
2022/08/27 10:23:18;;;;;;;4.15;0.65;;;21.10;99.90;;;;;;5030655;28;20059;-81
2022/08/27 10:26:21;;;;;;;4.95;1.17;;;21.10;99.90;;;;;;5031387;28;20401;-81
2022/08/27 10:29:22;;;;;;;6.05;1.10;;;21.30;99.90;;;;;;5014591;28;20053;-81
2022/08/27 10:32:04;;;;;;;8.50;0.90;;;22.40;99.90;;;;;;5014002;28;20279;-82
2022/08/27 10:34:41;;;;;;;4.45;0.60;;;23.50;99.90;;;;;;5030676;28;20042;-82
2022/08/27 10:37:21;;;;;;;4.22;0.75;;;24.10;98.10;;;;;;5030860;28;20049;-82
2022/08/27 10:40:16;;;;;;;4.35;0.70;;;24.10;97.90;;;;;;5031288;28;20558;-82
2022/08/27 10:42:59;;;;;;;3.97;0.70;;;24.10;98.10;;;;;;5013958;28;20049;-82
2022/08/27 10:45:54;;;;;;;4.03;0.60;;;25.00;97.50;;;;;;5030581;28;20128;-82
2022/08/27 10:48:42;;;;;;;6.00;0.88;;;25.60;97.60;;;;;;5030543;28;20045;-82
2022/08/27 10:51:23;;;;;;;5.22;0.73;;;25.80;97.40;;;;;;5031242;28;20053;-81
2022/08/27 10:53:54;;;;;;;5.28;0.93;;;26.40;97.00;;;;;;5034641;28;20041;-80
2022/08/27 10:56:41;;;;;;;4.57;0.50;;;26.90;95.60;;;;;;5034275;28;20405;-80
2022/08/27 10:59:36;;;;;;;3.88;0.68;;;26.90;94.50;;;;;;5015201;28;20042;-80
2022/08/27 11:02:41;;;;;;;5.03;0.60;;;26.90;93.60;;;;;;5014594;28;20087;-80
2022/08/27 11:05:27;;;;;;;2.88;0.50;;;27.20;94.90;;;;;;5014392;28;20099;-80
2022/08/27 11:08:04;;;;;;;4.05;0.70;;;27.10;95.20;;;;;;5014388;28;20048;-80
2022/08/27 11:10:38;;;;;;;3.20;0.75;;;26.50;95.50;;;;;;5014491;28;20038;-80
2022/08/27 11:13:33;;;;;;;6.53;0.80;;;25.80;95.40;;;;;;5014501;28;20155;-80
2022/08/27 11:16:01;;;;;;;6.07;0.68;;;25.00;96.30;;;;;;4997495;28;20111;-80
2022/08/27 11:18:46;;;;;;;4.40;0.88;;;24.70;96.90;;;;;;4997964;28;20045;-80
2022/08/27 11:21:35;;;;;;;3.47;0.60;;;24.40;97.00;;;;;;4998133;28;20060;-80
2022/08/27 11:24:33;;;;;;;2.70;0.52;;;24.10;96.80;;;;;;5015296;28;20450;-81
2022/08/27 11:27:04;;;;;;;3.85;0.80;;;23.80;97.40;;;;;;4997471;28;20138;-83
2022/08/27 11:29:36;;;;;;;3.47;0.55;;;23.80;97.20;;;;;;5014016;28;20033;-81
2022/08/27 11:32:32;;;;;;;2.15;0.40;;;24.50;97.00;;;;;;5011842;28;20068;-81
2022/08/27 11:35:02;;;;;;;4.03;0.57;;;25.20;95.90;;;;;;5017074;28;20041;-82
2022/08/27 11:37:27;;;;;;;3.85;0.50;;;26.10;95.60;;;;;;5033306;28;20072;-81
2022/08/27 11:40:31;;;;;;;4.35;0.55;;;26.40;95.10;;;;;;5033525;28;20075;-82
2022/08/27 11:43:09;;;;;;;2.22;0.40;;;27.00;93.90;;;;;;5033692;28;20489;-81
2022/08/27 11:45:38;;;;;;;4.03;0.65;;;27.30;94.50;;;;;;5016891;28;20489;-82
2022/08/27 11:48:25;;;;;;;2.33;0.32;;;26.80;93.50;;;;;;5032940;28;20080;-82
2022/08/27 11:51:01;;;;;;;2.08;0.40;;;26.20;93.90;;;;;;5033236;28;20045;-82
2022/08/27 11:53:36;;;;;;;2.92;0.60;;;26.00;95.40;;;;;;5033354;28;20486;-82
2022/08/27 11:56:42;;;;;;;5.25;0.63;;;25.70;95.80;;;;;;5033018;28;20489;-82
2022/08/27 11:59:25;;;;;;;2.63;0.40;;;25.30;95.50;;;;;;5012376;28;20045;-81
2022/08/27 12:01:56;;;;;;;2.75;0.60;;;24.90;95.70;;;;;;4995521;28;20141;-82
2022/08/27 12:04:21;;;;;;;6.68;0.68;;;24.70;96.00;;;;;;5001263;28;20053;-82
2022/08/27 12:07:00;;;;;;;5.82;0.80;;;24.70;96.10;;;;;;5032805;28;20516;-82
2022/08/27 12:09:27;;;;;;;3.42;0.55;;;25.00;96.10;;;;;;5032946;28;20114;-82
2022/08/27 12:12:03;;;;;;;2.90;0.57;;;25.00;95.70;;;;;;5016838;28;20048;-82
2022/08/27 12:15:13;;;;;;;2.55;0.40;;;25.10;95.40;;;;;;5032875;28;20512;-82
2022/08/27 12:17:58;;;;;;;4.07;0.52;;;25.10;95.70;;;;;;4996115;28;20414;-82
2022/08/27 12:20:46;;;;;;;3.75;0.60;;;25.20;96.00;;;;;;5032087;28;20378;-81
2022/08/27 12:23:39;;;;;;;4.72;0.70;;;25.00;95.80;;;;;;5032497;28;20048;-81
2022/08/27 12:26:33;;;;;;;7.75;0.95;;;24.80;95.90;;;;;;5016567;28;20075;-81
2022/08/27 12:29:23;;;;;;;3.25;0.40;;;24.70;95.60;;;;;;5032933;28;20077;-82
2022/08/27 12:31:53;;;;;;;3.33;0.70;;;25.50;95.30;;;;;;5016395;28;20057;-82
2022/08/27 12:34:25;;;;;;;3.65;0.52;;;26.00;95.80;;;;;;5032969;28;20417;-82
2022/08/27 12:36:53;;;;;;;2.92;0.50;;;25.80;94.90;;;;;;5032801;28;20128;-82
2022/08/27 12:39:26;;;;;;;3.20;0.38;;;25.40;94.70;;;;;;5032160;28;20045;-82
2022/08/27 12:41:52;;;;;;;4.97;0.65;;;25.20;94.60;;;;;;5032721;28;20046;-81
2022/08/27 12:44:29;;;;;;;3.75;0.50;;;25.10;94.90;;;;;;5016092;28;20051;-82
2022/08/27 12:47:00;;;;;;;2.55;0.45;;;25.50;94.90;;;;;;5032456;28;20124;-82
2022/08/27 12:49:35;;;;;;;4.40;0.57;;;25.60;94.30;;;;;;5016004;28;20476;-82
2022/08/27 12:52:13;;;;;;;6.13;0.50;;;25.60;94.80;;;;;;5033011;28;20496;-82
2022/08/27 12:54:39;;;;;;;3.15;0.55;;;25.50;94.80;;;;;;5032467;28;20077;-83
2022/08/27 12:57:29;;;;;;;4.13;0.43;;;25.30;94.50;;;;;;5031755;28;20096;-81
2022/08/27 13:00:07;;;;;;;2.70;0.60;;;25.40;94.70;;;;;;5032327;28;20132;-82
2022/08/27 13:02:45;;;;;;;4.18;0.50;;;25.60;94.20;;;;;;5032305;28;20073;-82
2022/08/27 13:05:16;;;;;;;2.80;0.50;;;26.10;94.70;;;;;;5032596;28;20420;-83
2022/08/27 13:07:45;;;;;;;3.83;0.63;;;26.30;94.30;;;;;;5032621;28;20505;-82
2022/08/27 13:10:22;;;;;;;3.72;0.70;;;26.20;94.20;;;;;;5015839;28;20052;-81
2022/08/27 13:13:10;;;;;;;4.43;0.57;;;26.00;94.40;;;;;;5031912;28;20045;-82
2022/08/27 13:15:40;;;;;;;3.95;0.70;;;26.40;94.10;;;;;;5011299;28;20049;-82
2022/08/27 13:18:07;;;;;;;3.47;0.40;;;26.90;94.10;;;;;;4996454;28;20069;-82